sensor_id;sensor_type;location;lat;lon;timestamp;P1;P2;P0
47081;PMS5003;33066;49.296;14.470;2023-06-22T00:00:01;12;8;
47081;PMS5003;33066;49.296;14.470;2023-06-22T00:02:26;9;8;
47081;PMS5003;33066;49.296;14.470;2023-06-22T00:04:52;9;8;
47081;PMS5003;33066;49.296;14.470;2023-06-22T00:07:18;8;7;
47081;PMS5003;33066;49.296;14.470;2023-06-22T00:09:43;10;7;
47081;PMS5003;33066;49.296;14.470;2023-06-22T00:12:09;12;8;
47081;PMS5003;33066;49.296;14.470;2023-06-22T00:14:34;8;6;
47081;PMS5003;33066;49.296;14.470;2023-06-22T00:16:59;6;6;
47081;PMS5003;33066;49.296;14.470;2023-06-22T00:19:24;10;8;
47081;PMS5003;33066;49.296;14.470;2023-06-22T00:21:51;6;6;
47081;PMS5003;33066;49.296;14.470;2023-06-22T00:24:14;9;8;
47081;PMS5003;33066;49.296;14.470;2023-06-22T00:26:39;9;7;
47081;PMS5003;33066;49.296;14.470;2023-06-22T00:29:04;10;7;
47081;PMS5003;33066;49.296;14.470;2023-06-22T00:31:30;8;6;
47081;PMS5003;33066;49.296;14.470;2023-06-22T00:33:55;6;5;
47081;PMS5003;33066;49.296;14.470;2023-06-22T00:36:20;8;8;
47081;PMS5003;33066;49.296;14.470;2023-06-22T00:38:46;6;6;
47081;PMS5003;33066;49.296;14.470;2023-06-22T00:41:12;10;9;
47081;PMS5003;33066;49.296;14.470;2023-06-22T00:43:37;9;9;
47081;PMS5003;33066;49.296;14.470;2023-06-22T00:46:04;10;7;
47081;PMS5003;33066;49.296;14.470;2023-06-22T00:48:28;9;7;
47081;PMS5003;33066;49.296;14.470;2023-06-22T00:50:53;9;7;
47081;PMS5003;33066;49.296;14.470;2023-06-22T00:53:18;9;7;
47081;PMS5003;33066;49.296;14.470;2023-06-22T00:55:44;6;6;
47081;PMS5003;33066;49.296;14.470;2023-06-22T00:58:08;4;4;
47081;PMS5003;33066;49.296;14.470;2023-06-22T01:00:33;10;4;
47081;PMS5003;33066;49.296;14.470;2023-06-22T01:02:59;6;5;
47081;PMS5003;33066;49.296;14.470;2023-06-22T01:05:24;13;13;
47081;PMS5003;33066;49.296;14.470;2023-06-22T01:07:56;8;7;
47081;PMS5003;33066;49.296;14.470;2023-06-22T01:10:18;5;5;
47081;PMS5003;33066;49.296;14.470;2023-06-22T01:12:43;5;5;
47081;PMS5003;33066;49.296;14.470;2023-06-22T01:15:08;6;5;
47081;PMS5003;33066;49.296;14.470;2023-06-22T01:17:33;5;5;
47081;PMS5003;33066;49.296;14.470;2023-06-22T01:19:57;8;5;
47081;PMS5003;33066;49.296;14.470;2023-06-22T01:22:23;9;6;
47081;PMS5003;33066;49.296;14.470;2023-06-22T01:24:51;7;7;
47081;PMS5003;33066;49.296;14.470;2023-06-22T01:27:17;9;6;
47081;PMS5003;33066;49.296;14.470;2023-06-22T01:29:38;10;7;
47081;PMS5003;33066;49.296;14.470;2023-06-22T01:32:04;8;6;
47081;PMS5003;33066;49.296;14.470;2023-06-22T01:34:29;8;7;
47081;PMS5003;33066;49.296;14.470;2023-06-22T01:36:54;5;5;
47081;PMS5003;33066;49.296;14.470;2023-06-22T01:39:20;6;6;
47081;PMS5003;33066;49.296;14.470;2023-06-22T01:41:45;7;7;
47081;PMS5003;33066;49.296;14.470;2023-06-22T01:44:09;7;7;
47081;PMS5003;33066;49.296;14.470;2023-06-22T01:46:35;7;6;
47081;PMS5003;33066;49.296;14.470;2023-06-22T01:48:59;7;6;
47081;PMS5003;33066;49.296;14.470;2023-06-22T01:51:24;7;6;
47081;PMS5003;33066;49.296;14.470;2023-06-22T01:53:49;10;7;
47081;PMS5003;33066;49.296;14.470;2023-06-22T01:56:15;16;13;
47081;PMS5003;33066;49.296;14.470;2023-06-22T01:58:43;11;10;
47081;PMS5003;33066;49.296;14.470;2023-06-22T02:01:09;7;5;
47081;PMS5003;33066;49.296;14.470;2023-06-22T02:03:31;8;6;
47081;PMS5003;33066;49.296;14.470;2023-06-22T02:05:58;6;6;
47081;PMS5003;33066;49.296;14.470;2023-06-22T02:08:22;8;8;
47081;PMS5003;33066;49.296;14.470;2023-06-22T02:10:46;9;7;
47081;PMS5003;33066;49.296;14.470;2023-06-22T02:13:11;9;5;
47081;PMS5003;33066;49.296;14.470;2023-06-22T02:15:36;14;8;
47081;PMS5003;33066;49.296;14.470;2023-06-22T02:18:01;12;11;
47081;PMS5003;33066;49.296;14.470;2023-06-22T02:20:26;8;8;
47081;PMS5003;33066;49.296;14.470;2023-06-22T02:22:51;8;7;
47081;PMS5003;33066;49.296;14.470;2023-06-22T02:25:16;5;5;
47081;PMS5003;33066;49.296;14.470;2023-06-22T02:27:41;8;8;
47081;PMS5003;33066;49.296;14.470;2023-06-22T02:30:07;6;5;
47081;PMS5003;33066;49.296;14.470;2023-06-22T02:32:31;6;5;
47081;PMS5003;33066;49.296;14.470;2023-06-22T02:34:56;6;6;
47081;PMS5003;33066;49.296;14.470;2023-06-22T02:37:21;6;6;
47081;PMS5003;33066;49.296;14.470;2023-06-22T02:39:46;8;4;
47081;PMS5003;33066;49.296;14.470;2023-06-22T02:42:11;5;5;
47081;PMS5003;33066;49.296;14.470;2023-06-22T02:44:38;4;3;
47081;PMS5003;33066;49.296;14.470;2023-06-22T02:47:02;6;5;
47081;PMS5003;33066;49.296;14.470;2023-06-22T02:49:27;5;5;
47081;PMS5003;33066;49.296;14.470;2023-06-22T02:51:52;7;5;
47081;PMS5003;33066;49.296;14.470;2023-06-22T02:54:17;6;6;
47081;PMS5003;33066;49.296;14.470;2023-06-22T02:56:42;5;4;
47081;PMS5003;33066;49.296;14.470;2023-06-22T02:59:07;7;6;
47081;PMS5003;33066;49.296;14.470;2023-06-22T03:01:32;8;5;
47081;PMS5003;33066;49.296;14.470;2023-06-22T03:03:57;8;5;
47081;PMS5003;33066;49.296;14.470;2023-06-22T03:06:22;8;6;
47081;PMS5003;33066;49.296;14.470;2023-06-22T03:08:47;6;5;
47081;PMS5003;33066;49.296;14.470;2023-06-22T03:12:59;6;5;
47081;PMS5003;33066;49.296;14.470;2023-06-22T03:15:25;7;6;
47081;PMS5003;33066;49.296;14.470;2023-06-22T03:17:50;7;7;
47081;PMS5003;33066;49.296;14.470;2023-06-22T03:20:15;6;6;
47081;PMS5003;33066;49.296;14.470;2023-06-22T03:22:40;10;6;
47081;PMS5003;33066;49.296;14.470;2023-06-22T03:25:05;6;6;
47081;PMS5003;33066;49.296;14.470;2023-06-22T03:27:30;5;4;
47081;PMS5003;33066;49.296;14.470;2023-06-22T03:29:56;7;6;
47081;PMS5003;33066;49.296;14.470;2023-06-22T03:32:20;3;3;
47081;PMS5003;33066;49.296;14.470;2023-06-22T03:34:45;4;4;
47081;PMS5003;33066;49.296;14.470;2023-06-22T03:37:10;8;6;
47081;PMS5003;33066;49.296;14.470;2023-06-22T03:39:35;6;6;
47081;PMS5003;33066;49.296;14.470;2023-06-22T03:42:00;3;3;
47081;PMS5003;33066;49.296;14.470;2023-06-22T03:44:25;5;5;
47081;PMS5003;33066;49.296;14.470;2023-06-22T03:46:50;6;6;
47081;PMS5003;33066;49.296;14.470;2023-06-22T03:49:15;8;6;
47081;PMS5003;33066;49.296;14.470;2023-06-22T03:51:41;8;7;
47081;PMS5003;33066;49.296;14.470;2023-06-22T03:54:06;11;11;
47081;PMS5003;33066;49.296;14.470;2023-06-22T03:56:31;5;5;
47081;PMS5003;33066;49.296;14.470;2023-06-22T03:58:56;7;6;
47081;PMS5003;33066;49.296;14.470;2023-06-22T04:01:21;12;9;
47081;PMS5003;33066;49.296;14.470;2023-06-22T04:03:46;5;5;
47081;PMS5003;33066;49.296;14.470;2023-06-22T04:06:11;10;8;
47081;PMS5003;33066;49.296;14.470;2023-06-22T04:08:36;9;6;
47081;PMS5003;33066;49.296;14.470;2023-06-22T04:11:02;11;9;
47081;PMS5003;33066;49.296;14.470;2023-06-22T04:13:28;8;8;
47081;PMS5003;33066;49.296;14.470;2023-06-22T04:15:52;7;6;
47081;PMS5003;33066;49.296;14.470;2023-06-22T04:18:17;7;7;
47081;PMS5003;33066;49.296;14.470;2023-06-22T04:20:43;6;5;
47081;PMS5003;33066;49.296;14.470;2023-06-22T04:23:08;12;10;
47081;PMS5003;33066;49.296;14.470;2023-06-22T04:25:35;12;10;
47081;PMS5003;33066;49.296;14.470;2023-06-22T04:27:58;8;8;
47081;PMS5003;33066;49.296;14.470;2023-06-22T04:30:24;8;7;
47081;PMS5003;33066;49.296;14.470;2023-06-22T04:32:49;8;7;
47081;PMS5003;33066;49.296;14.470;2023-06-22T04:35:14;12;12;
47081;PMS5003;33066;49.296;14.470;2023-06-22T04:37:40;7;6;
47081;PMS5003;33066;49.296;14.470;2023-06-22T04:40:05;8;8;
47081;PMS5003;33066;49.296;14.470;2023-06-22T04:42:30;8;8;
47081;PMS5003;33066;49.296;14.470;2023-06-22T04:44:55;8;7;
47081;PMS5003;33066;49.296;14.470;2023-06-22T04:47:22;6;6;
47081;PMS5003;33066;49.296;14.470;2023-06-22T04:49:45;11;8;
47081;PMS5003;33066;49.296;14.470;2023-06-22T04:52:11;7;6;
47081;PMS5003;33066;49.296;14.470;2023-06-22T04:54:36;8;6;
47081;PMS5003;33066;49.296;14.470;2023-06-22T04:57:00;9;8;
47081;PMS5003;33066;49.296;14.470;2023-06-22T04:59:28;5;5;
47081;PMS5003;33066;49.296;14.470;2023-06-22T05:01:52;8;8;
47081;PMS5003;33066;49.296;14.470;2023-06-22T05:04:17;11;6;
47081;PMS5003;33066;49.296;14.470;2023-06-22T05:06:42;11;8;
47081;PMS5003;33066;49.296;14.470;2023-06-22T05:09:07;10;8;
47081;PMS5003;33066;49.296;14.470;2023-06-22T05:11:32;8;8;
47081;PMS5003;33066;49.296;14.470;2023-06-22T05:13:57;10;7;
47081;PMS5003;33066;49.296;14.470;2023-06-22T05:16:23;6;6;
47081;PMS5003;33066;49.296;14.470;2023-06-22T05:18:49;11;10;
47081;PMS5003;33066;49.296;14.470;2023-06-22T05:21:14;8;8;
47081;PMS5003;33066;49.296;14.470;2023-06-22T05:23:39;12;8;
47081;PMS5003;33066;49.296;14.470;2023-06-22T05:26:04;12;12;
47081;PMS5003;33066;49.296;14.470;2023-06-22T05:28:31;15;10;
47081;PMS5003;33066;49.296;14.470;2023-06-22T05:30:55;24;19;
47081;PMS5003;33066;49.296;14.470;2023-06-22T05:33:21;25;22;
47081;PMS5003;33066;49.296;14.470;2023-06-22T05:35:46;17;14;
47081;PMS5003;33066;49.296;14.470;2023-06-22T05:38:11;14;10;
47081;PMS5003;33066;49.296;14.470;2023-06-22T05:40:36;14;10;
47081;PMS5003;33066;49.296;14.470;2023-06-22T05:43:02;16;12;
47081;PMS5003;33066;49.296;14.470;2023-06-22T05:45:27;16;15;
47081;PMS5003;33066;49.296;14.470;2023-06-22T05:47:52;10;9;
47081;PMS5003;33066;49.296;14.470;2023-06-22T05:50:19;14;9;
47081;PMS5003;33066;49.296;14.470;2023-06-22T05:52:43;12;12;
47081;PMS5003;33066;49.296;14.470;2023-06-22T05:55:09;11;10;
47081;PMS5003;33066;49.296;14.470;2023-06-22T05:57:34;12;10;
47081;PMS5003;33066;49.296;14.470;2023-06-22T06:00:00;9;8;
47081;PMS5003;33066;49.296;14.470;2023-06-22T06:02:25;16;12;
47081;PMS5003;33066;49.296;14.470;2023-06-22T06:04:52;13;8;
47081;PMS5003;33066;49.296;14.470;2023-06-22T06:07:18;15;12;
47081;PMS5003;33066;49.296;14.470;2023-06-22T06:09:41;14;12;
47081;PMS5003;33066;49.296;14.470;2023-06-22T06:12:07;9;8;
47081;PMS5003;33066;49.296;14.470;2023-06-22T06:14:33;9;8;
47081;PMS5003;33066;49.296;14.470;2023-06-22T06:16:58;15;14;
47081;PMS5003;33066;49.296;14.470;2023-06-22T06:19:24;13;11;
47081;PMS5003;33066;49.296;14.470;2023-06-22T06:21:49;9;7;
47081;PMS5003;33066;49.296;14.470;2023-06-22T06:24:17;12;11;
47081;PMS5003;33066;49.296;14.470;2023-06-22T06:26:41;13;11;
47081;PMS5003;33066;49.296;14.470;2023-06-22T06:29:07;23;18;
47081;PMS5003;33066;49.296;14.470;2023-06-22T06:31:32;17;16;
47081;PMS5003;33066;49.296;14.470;2023-06-22T06:33:57;16;14;
47081;PMS5003;33066;49.296;14.470;2023-06-22T06:36:23;23;21;
47081;PMS5003;33066;49.296;14.470;2023-06-22T06:38:49;16;13;
47081;PMS5003;33066;49.296;14.470;2023-06-22T06:41:15;23;19;
47081;PMS5003;33066;49.296;14.470;2023-06-22T06:43:39;22;19;
47081;PMS5003;33066;49.296;14.470;2023-06-22T06:46:05;19;16;
47081;PMS5003;33066;49.296;14.470;2023-06-22T06:48:30;26;21;
47081;PMS5003;33066;49.296;14.470;2023-06-22T06:50:55;23;23;
47081;PMS5003;33066;49.296;14.470;2023-06-22T06:53:21;18;18;
47081;PMS5003;33066;49.296;14.470;2023-06-22T06:55:47;21;20;
47081;PMS5003;33066;49.296;14.470;2023-06-22T06:58:13;17;12;
47081;PMS5003;33066;49.296;14.470;2023-06-22T07:00:38;24;19;
47081;PMS5003;33066;49.296;14.470;2023-06-22T07:03:04;18;16;
47081;PMS5003;33066;49.296;14.470;2023-06-22T07:05:29;21;18;
47081;PMS5003;33066;49.296;14.470;2023-06-22T07:07:55;11;11;
47081;PMS5003;33066;49.296;14.470;2023-06-22T07:10:20;14;13;
47081;PMS5003;33066;49.296;14.470;2023-06-22T07:12:46;19;16;
47081;PMS5003;33066;49.296;14.470;2023-06-22T07:15:11;15;13;
47081;PMS5003;33066;49.296;14.470;2023-06-22T07:17:39;14;13;
47081;PMS5003;33066;49.296;14.470;2023-06-22T07:20:03;17;14;
47081;PMS5003;33066;49.296;14.470;2023-06-22T07:22:28;13;13;
47081;PMS5003;33066;49.296;14.470;2023-06-22T07:24:53;23;18;
47081;PMS5003;33066;49.296;14.470;2023-06-22T07:27:19;22;19;
47081;PMS5003;33066;49.296;14.470;2023-06-22T07:29:44;18;16;
47081;PMS5003;33066;49.296;14.470;2023-06-22T07:32:09;20;18;
47081;PMS5003;33066;49.296;14.470;2023-06-22T07:34:35;19;14;
47081;PMS5003;33066;49.296;14.470;2023-06-22T07:37:02;21;20;
47081;PMS5003;33066;49.296;14.470;2023-06-22T07:39:26;24;20;
47081;PMS5003;33066;49.296;14.470;2023-06-22T07:41:51;19;16;
47081;PMS5003;33066;49.296;14.470;2023-06-22T07:44:16;13;12;
47081;PMS5003;33066;49.296;14.470;2023-06-22T07:46:42;15;14;
47081;PMS5003;33066;49.296;14.470;2023-06-22T07:49:08;20;17;
47081;PMS5003;33066;49.296;14.470;2023-06-22T07:51:33;15;15;
47081;PMS5003;33066;49.296;14.470;2023-06-22T07:53:58;20;20;
47081;PMS5003;33066;49.296;14.470;2023-06-22T07:56:24;19;18;
47081;PMS5003;33066;49.296;14.470;2023-06-22T07:58:49;18;15;
47081;PMS5003;33066;49.296;14.470;2023-06-22T08:01:14;17;14;
47081;PMS5003;33066;49.296;14.470;2023-06-22T08:03:39;22;20;
47081;PMS5003;33066;49.296;14.470;2023-06-22T08:06:05;16;14;
47081;PMS5003;33066;49.296;14.470;2023-06-22T08:08:31;12;11;
47081;PMS5003;33066;49.296;14.470;2023-06-22T08:10:55;15;14;
47081;PMS5003;33066;49.296;14.470;2023-06-22T08:13:21;22;20;
47081;PMS5003;33066;49.296;14.470;2023-06-22T08:15:46;18;17;
47081;PMS5003;33066;49.296;14.470;2023-06-22T08:18:12;30;23;
47081;PMS5003;33066;49.296;14.470;2023-06-22T08:20:39;16;15;
47081;PMS5003;33066;49.296;14.470;2023-06-22T08:23:03;15;15;
47081;PMS5003;33066;49.296;14.470;2023-06-22T08:25:28;17;13;
47081;PMS5003;33066;49.296;14.470;2023-06-22T08:27:55;14;14;
47081;PMS5003;33066;49.296;14.470;2023-06-22T08:30:20;25;24;
47081;PMS5003;33066;49.296;14.470;2023-06-22T08:32:46;13;12;
47081;PMS5003;33066;49.296;14.470;2023-06-22T08:35:10;17;13;
47081;PMS5003;33066;49.296;14.470;2023-06-22T08:37:36;13;13;
47081;PMS5003;33066;49.296;14.470;2023-06-22T08:40:03;13;11;
47081;PMS5003;33066;49.296;14.470;2023-06-22T08:42:27;22;19;
47081;PMS5003;33066;49.296;14.470;2023-06-22T08:44:55;13;11;
47081;PMS5003;33066;49.296;14.470;2023-06-22T08:47:18;19;18;
47081;PMS5003;33066;49.296;14.470;2023-06-22T08:49:43;22;15;
47081;PMS5003;33066;49.296;14.470;2023-06-22T08:52:10;18;16;
47081;PMS5003;33066;49.296;14.470;2023-06-22T08:54:35;14;11;
47081;PMS5003;33066;49.296;14.470;2023-06-22T08:56:59;14;12;
47081;PMS5003;33066;49.296;14.470;2023-06-22T08:59:25;10;9;
47081;PMS5003;33066;49.296;14.470;2023-06-22T09:01:50;17;15;
47081;PMS5003;33066;49.296;14.470;2023-06-22T09:04:16;17;12;
47081;PMS5003;33066;49.296;14.470;2023-06-22T09:06:42;13;12;
47081;PMS5003;33066;49.296;14.470;2023-06-22T09:09:07;15;11;
47081;PMS5003;33066;49.296;14.470;2023-06-22T09:11:32;11;10;
47081;PMS5003;33066;49.296;14.470;2023-06-22T09:13:59;11;11;
47081;PMS5003;33066;49.296;14.470;2023-06-22T09:16:24;14;11;
47081;PMS5003;33066;49.296;14.470;2023-06-22T09:18:50;11;11;
47081;PMS5003;33066;49.296;14.470;2023-06-22T09:21:15;17;12;
47081;PMS5003;33066;49.296;14.470;2023-06-22T09:23:41;10;10;
47081;PMS5003;33066;49.296;14.470;2023-06-22T09:26:07;9;9;
47081;PMS5003;33066;49.296;14.470;2023-06-22T09:28:32;10;8;
47081;PMS5003;33066;49.296;14.470;2023-06-22T09:30:59;8;8;
47081;PMS5003;33066;49.296;14.470;2023-06-22T09:33:24;11;10;
47081;PMS5003;33066;49.296;14.470;2023-06-22T09:35:51;18;15;
47081;PMS5003;33066;49.296;14.470;2023-06-22T09:38:15;13;11;
47081;PMS5003;33066;49.296;14.470;2023-06-22T09:40:41;11;10;
47081;PMS5003;33066;49.296;14.470;2023-06-22T09:43:06;22;21;
47081;PMS5003;33066;49.296;14.470;2023-06-22T09:45:32;14;12;
47081;PMS5003;33066;49.296;14.470;2023-06-22T09:47:57;11;11;
47081;PMS5003;33066;49.296;14.470;2023-06-22T09:50:23;11;9;
47081;PMS5003;33066;49.296;14.470;2023-06-22T09:52:48;11;11;
47081;PMS5003;33066;49.296;14.470;2023-06-22T09:55:14;12;11;
47081;PMS5003;33066;49.296;14.470;2023-06-22T09:57:40;14;11;
47081;PMS5003;33066;49.296;14.470;2023-06-22T10:00:06;13;13;
47081;PMS5003;33066;49.296;14.470;2023-06-22T10:02:31;13;13;
47081;PMS5003;33066;49.296;14.470;2023-06-22T10:04:56;10;7;
47081;PMS5003;33066;49.296;14.470;2023-06-22T10:07:22;11;11;
47081;PMS5003;33066;49.296;14.470;2023-06-22T10:09:47;7;7;
47081;PMS5003;33066;49.296;14.470;2023-06-22T10:12:13;11;8;
47081;PMS5003;33066;49.296;14.470;2023-06-22T10:14:39;9;8;
47081;PMS5003;33066;49.296;14.470;2023-06-22T10:17:05;6;5;
47081;PMS5003;33066;49.296;14.470;2023-06-22T10:19:32;9;7;
47081;PMS5003;33066;49.296;14.470;2023-06-22T10:21:55;13;8;
47081;PMS5003;33066;49.296;14.470;2023-06-22T10:24:21;11;9;
47081;PMS5003;33066;49.296;14.470;2023-06-22T10:26:47;10;7;
47081;PMS5003;33066;49.296;14.470;2023-06-22T10:29:12;7;7;
47081;PMS5003;33066;49.296;14.470;2023-06-22T10:31:37;8;6;
47081;PMS5003;33066;49.296;14.470;2023-06-22T10:34:02;10;8;
47081;PMS5003;33066;49.296;14.470;2023-06-22T10:36:28;6;6;
47081;PMS5003;33066;49.296;14.470;2023-06-22T10:38:54;9;9;
47081;PMS5003;33066;49.296;14.470;2023-06-22T10:41:19;7;7;
47081;PMS5003;33066;49.296;14.470;2023-06-22T10:43:45;5;5;
47081;PMS5003;33066;49.296;14.470;2023-06-22T10:46:10;7;7;
47081;PMS5003;33066;49.296;14.470;2023-06-22T10:48:36;9;7;
47081;PMS5003;33066;49.296;14.470;2023-06-22T10:51:01;6;5;
47081;PMS5003;33066;49.296;14.470;2023-06-22T10:53:26;4;3;
47081;PMS5003;33066;49.296;14.470;2023-06-22T10:55:52;7;7;
47081;PMS5003;33066;49.296;14.470;2023-06-22T10:58:18;8;8;
47081;PMS5003;33066;49.296;14.470;2023-06-22T11:00:44;8;7;
47081;PMS5003;33066;49.296;14.470;2023-06-22T11:03:09;14;13;
47081;PMS5003;33066;49.296;14.470;2023-06-22T11:05:35;7;7;
47081;PMS5003;33066;49.296;14.470;2023-06-22T11:08:00;11;9;
47081;PMS5003;33066;49.296;14.470;2023-06-22T11:10:26;7;6;
47081;PMS5003;33066;49.296;14.470;2023-06-22T11:12:51;7;6;
47081;PMS5003;33066;49.296;14.470;2023-06-22T11:15:17;7;5;
47081;PMS5003;33066;49.296;14.470;2023-06-22T11:17:42;6;6;
47081;PMS5003;33066;49.296;14.470;2023-06-22T11:20:08;6;6;
47081;PMS5003;33066;49.296;14.470;2023-06-22T11:22:33;6;6;
47081;PMS5003;33066;49.296;14.470;2023-06-22T11:24:59;6;6;
47081;PMS5003;33066;49.296;14.470;2023-06-22T11:27:24;8;7;
47081;PMS5003;33066;49.296;14.470;2023-06-22T11:29:50;9;5;
47081;PMS5003;33066;49.296;14.470;2023-06-22T11:32:16;9;8;
47081;PMS5003;33066;49.296;14.470;2023-06-22T11:34:41;4;4;
47081;PMS5003;33066;49.296;14.470;2023-06-22T11:37:07;7;7;
47081;PMS5003;33066;49.296;14.470;2023-06-22T11:39:32;9;8;
47081;PMS5003;33066;49.296;14.470;2023-06-22T11:41:58;8;6;
47081;PMS5003;33066;49.296;14.470;2023-06-22T11:44:24;10;10;
47081;PMS5003;33066;49.296;14.470;2023-06-22T11:46:49;7;6;
47081;PMS5003;33066;49.296;14.470;2023-06-22T11:49:15;8;7;
47081;PMS5003;33066;49.296;14.470;2023-06-22T11:51:40;9;6;
47081;PMS5003;33066;49.296;14.470;2023-06-22T11:54:06;7;7;
47081;PMS5003;33066;49.296;14.470;2023-06-22T11:56:32;5;5;
47081;PMS5003;33066;49.296;14.470;2023-06-22T11:58:57;6;6;
47081;PMS5003;33066;49.296;14.470;2023-06-22T12:01:22;8;8;
47081;PMS5003;33066;49.296;14.470;2023-06-22T12:03:48;11;10;
47081;PMS5003;33066;49.296;14.470;2023-06-22T12:06:14;10;9;
47081;PMS5003;33066;49.296;14.470;2023-06-22T12:08:39;7;6;
47081;PMS5003;33066;49.296;14.470;2023-06-22T12:11:05;6;6;
47081;PMS5003;33066;49.296;14.470;2023-06-22T12:13:30;5;5;
47081;PMS5003;33066;49.296;14.470;2023-06-22T12:15:56;6;6;
47081;PMS5003;33066;49.296;14.470;2023-06-22T12:18:23;9;7;
47081;PMS5003;33066;49.296;14.470;2023-06-22T12:20:47;5;4;
47081;PMS5003;33066;49.296;14.470;2023-06-22T12:23:14;15;14;
47081;PMS5003;33066;49.296;14.470;2023-06-22T12:25:38;5;5;
47081;PMS5003;33066;49.296;14.470;2023-06-22T12:28:04;6;6;
47081;PMS5003;33066;49.296;14.470;2023-06-22T12:30:29;6;6;
47081;PMS5003;33066;49.296;14.470;2023-06-22T12:32:56;6;6;
47081;PMS5003;33066;49.296;14.470;2023-06-22T12:35:21;5;4;
47081;PMS5003;33066;49.296;14.470;2023-06-22T12:37:46;6;5;
47081;PMS5003;33066;49.296;14.470;2023-06-22T12:40:13;7;6;
47081;PMS5003;33066;49.296;14.470;2023-06-22T12:42:38;7;7;
47081;PMS5003;33066;49.296;14.470;2023-06-22T12:45:03;6;6;
47081;PMS5003;33066;49.296;14.470;2023-06-22T12:47:29;7;7;
47081;PMS5003;33066;49.296;14.470;2023-06-22T12:49:54;10;6;
47081;PMS5003;33066;49.296;14.470;2023-06-22T12:52:20;10;7;
47081;PMS5003;33066;49.296;14.470;2023-06-22T12:54:46;11;11;
47081;PMS5003;33066;49.296;14.470;2023-06-22T12:57:11;7;6;
47081;PMS5003;33066;49.296;14.470;2023-06-22T12:59:37;8;8;
47081;PMS5003;33066;49.296;14.470;2023-06-22T13:02:02;5;5;
47081;PMS5003;33066;49.296;14.470;2023-06-22T13:04:28;8;7;
47081;PMS5003;33066;49.296;14.470;2023-06-22T13:06:53;9;6;
47081;PMS5003;33066;49.296;14.470;2023-06-22T13:09:19;6;6;
47081;PMS5003;33066;49.296;14.470;2023-06-22T13:11:45;5;5;
47081;PMS5003;33066;49.296;14.470;2023-06-22T13:14:10;6;6;
47081;PMS5003;33066;49.296;14.470;2023-06-22T13:16:36;7;6;
47081;PMS5003;33066;49.296;14.470;2023-06-22T13:19:02;7;7;
47081;PMS5003;33066;49.296;14.470;2023-06-22T13:21:27;13;13;
47081;PMS5003;33066;49.296;14.470;2023-06-22T13:23:53;5;4;
47081;PMS5003;33066;49.296;14.470;2023-06-22T13:26:18;7;5;
47081;PMS5003;33066;49.296;14.470;2023-06-22T13:28:44;6;6;
47081;PMS5003;33066;49.296;14.470;2023-06-22T13:31:09;11;9;
47081;PMS5003;33066;49.296;14.470;2023-06-22T13:33:35;6;6;
47081;PMS5003;33066;49.296;14.470;2023-06-22T13:36:00;4;4;
47081;PMS5003;33066;49.296;14.470;2023-06-22T13:38:26;5;5;
47081;PMS5003;33066;49.296;14.470;2023-06-22T13:40:51;4;4;
47081;PMS5003;33066;49.296;14.470;2023-06-22T13:43:18;6;6;
47081;PMS5003;33066;49.296;14.470;2023-06-22T13:45:43;6;6;
47081;PMS5003;33066;49.296;14.470;2023-06-22T13:48:08;5;4;
47081;PMS5003;33066;49.296;14.470;2023-06-22T13:50:34;12;8;
47081;PMS5003;33066;49.296;14.470;2023-06-22T13:52:59;8;8;
47081;PMS5003;33066;49.296;14.470;2023-06-22T13:55:25;6;6;
47081;PMS5003;33066;49.296;14.470;2023-06-22T13:57:50;11;10;
47081;PMS5003;33066;49.296;14.470;2023-06-22T14:00:16;6;6;
47081;PMS5003;33066;49.296;14.470;2023-06-22T14:02:41;8;8;
47081;PMS5003;33066;49.296;14.470;2023-06-22T14:05:07;10;6;
47081;PMS5003;33066;49.296;14.470;2023-06-22T14:07:34;7;7;
47081;PMS5003;33066;49.296;14.470;2023-06-22T14:09:58;7;5;
47081;PMS5003;33066;49.296;14.470;2023-06-22T14:12:24;6;6;
47081;PMS5003;33066;49.296;14.470;2023-06-22T14:14:48;9;9;
47081;PMS5003;33066;49.296;14.470;2023-06-22T14:17:15;10;8;
47081;PMS5003;33066;49.296;14.470;2023-06-22T14:19:39;11;10;
47081;PMS5003;33066;49.296;14.470;2023-06-22T14:22:05;9;6;
47081;PMS5003;33066;49.296;14.470;2023-06-22T14:24:31;8;8;
47081;PMS5003;33066;49.296;14.470;2023-06-22T14:26:57;10;6;
47081;PMS5003;33066;49.296;14.470;2023-06-22T14:29:22;11;7;
47081;PMS5003;33066;49.296;14.470;2023-06-22T14:31:49;11;11;
47081;PMS5003;33066;49.296;14.470;2023-06-22T14:34:13;10;6;
47081;PMS5003;33066;49.296;14.470;2023-06-22T14:36:38;7;6;
47081;PMS5003;33066;49.296;14.470;2023-06-22T14:39:04;7;7;
47081;PMS5003;33066;49.296;14.470;2023-06-22T14:41:31;11;7;
47081;PMS5003;33066;49.296;14.470;2023-06-22T14:43:55;10;7;
47081;PMS5003;33066;49.296;14.470;2023-06-22T14:46:20;9;8;
47081;PMS5003;33066;49.296;14.470;2023-06-22T14:48:47;5;4;
47081;PMS5003;33066;49.296;14.470;2023-06-22T14:51:11;11;7;
47081;PMS5003;33066;49.296;14.470;2023-06-22T14:53:36;9;7;
47081;PMS5003;33066;49.296;14.470;2023-06-22T14:56:02;9;7;
47081;PMS5003;33066;49.296;14.470;2023-06-22T14:58:28;7;7;
47081;PMS5003;33066;49.296;14.470;2023-06-22T15:00:53;5;4;
47081;PMS5003;33066;49.296;14.470;2023-06-22T15:03:19;10;7;
47081;PMS5003;33066;49.296;14.470;2023-06-22T15:05:45;5;5;
47081;PMS5003;33066;49.296;14.470;2023-06-22T15:08:10;8;6;
47081;PMS5003;33066;49.296;14.470;2023-06-22T15:10:36;7;7;
47081;PMS5003;33066;49.296;14.470;2023-06-22T15:13:00;9;9;
47081;PMS5003;33066;49.296;14.470;2023-06-22T15:15:26;7;7;
47081;PMS5003;33066;49.296;14.470;2023-06-22T15:17:52;10;10;
47081;PMS5003;33066;49.296;14.470;2023-06-22T15:20:18;8;7;
47081;PMS5003;33066;49.296;14.470;2023-06-22T15:22:43;7;7;
47081;PMS5003;33066;49.296;14.470;2023-06-22T15:25:09;7;5;
47081;PMS5003;33066;49.296;14.470;2023-06-22T15:27:35;8;7;
47081;PMS5003;33066;49.296;14.470;2023-06-22T15:30:00;9;7;
47081;PMS5003;33066;49.296;14.470;2023-06-22T15:32:26;7;7;
47081;PMS5003;33066;49.296;14.470;2023-06-22T15:34:51;8;7;
47081;PMS5003;33066;49.296;14.470;2023-06-22T15:37:16;8;7;
47081;PMS5003;33066;49.296;14.470;2023-06-22T15:39:42;9;8;
47081;PMS5003;33066;49.296;14.470;2023-06-22T15:42:07;10;9;
47081;PMS5003;33066;49.296;14.470;2023-06-22T15:44:33;10;9;
47081;PMS5003;33066;49.296;14.470;2023-06-22T15:46:58;10;8;
47081;PMS5003;33066;49.296;14.470;2023-06-22T15:49:25;8;7;
47081;PMS5003;33066;49.296;14.470;2023-06-22T15:51:49;11;9;
47081;PMS5003;33066;49.296;14.470;2023-06-22T15:54:16;10;8;
47081;PMS5003;33066;49.296;14.470;2023-06-22T15:56:40;13;9;
47081;PMS5003;33066;49.296;14.470;2023-06-22T15:59:06;10;8;
47081;PMS5003;33066;49.296;14.470;2023-06-22T16:01:31;12;9;
47081;PMS5003;33066;49.296;14.470;2023-06-22T16:03:56;14;10;
47081;PMS5003;33066;49.296;14.470;2023-06-22T16:06:22;8;7;
47081;PMS5003;33066;49.296;14.470;2023-06-22T16:08:47;11;10;